Time;durP1;ratioP1;P1;durP2;ratioP2;P2;SDS_P1;SDS_P2;PMS_P1;PMS_P2;Temp;Humidity;BMP_temperature;BMP_pressure;BME280_temperature;BME280_humidity;BME280_pressure;Samples;Min_cycle;Max_cycle;Signal;HPM_P1;HPM_P2
2022/12/11 00:02:06;;;;;;;8.57;5.00;;;;;;;1.26;64.54;100681.25;5050015;27;20053;-68
2022/12/11 00:04:32;;;;;;;9.30;5.20;;;;;;;1.12;65.55;100683.19;5038973;27;20052;-68
2022/12/11 00:06:59;;;;;;;10.70;4.97;;;;;;;1.21;64.02;100680.50;5048745;27;20052;-68
2022/12/11 00:09:25;;;;;;;9.98;5.03;;;;;;;1.52;63.30;100671.38;5049624;27;20044;-68
2022/12/11 00:11:52;;;;;;;9.40;4.80;;;;;;;1.31;64.21;100675.16;5043206;27;20044;-68
2022/12/11 00:14:18;;;;;;;8.90;4.88;;;;;;;1.41;64.32;100668.09;5076016;27;20052;-68
2022/12/11 00:16:47;;;;;;;8.60;4.57;;;;;;;1.45;64.40;100665.47;5049566;28;20052;-68
2022/12/11 00:19:14;;;;;;;8.73;4.38;;;;;;;1.42;64.45;100675.00;5053757;28;20044;-68
2022/12/11 00:21:40;;;;;;;9.35;4.90;;;;;;;1.35;65.11;100669.06;5060192;27;20040;-67
2022/12/11 00:24:07;;;;;;;8.18;4.70;;;;;;;1.09;65.52;100668.59;5058697;27;20056;-67
2022/12/11 00:26:33;;;;;;;9.93;4.85;;;;;;;0.83;66.35;100668.97;5036916;27;20051;-67
2022/12/11 00:29:00;;;;;;;7.72;4.50;;;;;;;0.72;66.56;100667.38;5052660;28;20055;-67
2022/12/11 00:31:26;;;;;;;7.78;4.30;;;;;;;0.46;66.59;100666.00;5058698;28;20051;-68
2022/12/11 00:33:54;;;;;;;6.93;4.10;;;;;;;0.76;66.12;100658.75;5039188;28;20041;-68
2022/12/11 00:36:23;;;;;;;9.18;4.50;;;;;;;0.95;65.64;100661.06;5057491;28;20044;-68
2022/12/11 00:38:51;;;;;;;8.00;4.25;;;;;;;0.97;65.67;100663.59;5069700;28;20048;-67
2022/12/11 00:41:18;;;;;;;8.57;5.00;;;;;;;0.79;65.58;100659.53;5038775;28;20420;-67
2022/12/11 00:43:44;;;;;;;9.65;4.60;;;;;;;1.01;65.45;100660.09;5047858;28;20064;-68
2022/12/11 00:46:11;;;;;;;8.70;4.43;;;;;;;1.07;65.24;100665.19;5048424;28;20059;-67
2022/12/11 00:48:38;;;;;;;9.73;4.40;;;;;;;1.13;64.75;100664.25;5040843;28;20428;-67
2022/12/11 00:51:06;;;;;;;10.15;4.45;;;;;;;0.88;64.89;100666.31;5065277;28;20036;-67
2022/12/11 00:53:33;;;;;;;7.57;4.68;;;;;;;0.86;65.75;100662.91;5059706;28;20494;-68
2022/12/11 00:56:00;;;;;;;7.90;4.18;;;;;;;0.69;66.29;100664.84;5050433;28;20052;-67
2022/12/11 00:58:26;;;;;;;8.07;4.57;;;;;;;0.85;66.27;100663.78;5086759;27;20035;-68
2022/12/11 01:00:53;;;;;;;10.40;5.32;;;;;;;0.89;66.35;100668.88;5058253;28;20070;-68
2022/12/11 01:03:20;;;;;;;13.70;5.93;;;;;;;1.09;65.72;100678.06;5046435;28;20044;-68
2022/12/11 01:05:53;;;;;;;8.82;5.00;;;;;;;0.68;66.78;100679.47;5089021;28;20040;-68
2022/12/11 01:08:21;;;;;;;8.52;4.38;;;;;;;0.72;66.60;100682.88;5073247;28;20646;-68
2022/12/11 01:10:46;;;;;;;9.98;5.20;;;;;;;0.86;66.24;100681.81;5051612;28;20602;-68
2022/12/11 01:13:13;;;;;;;16.40;6.38;;;;;;;0.48;67.81;100682.28;5052150;28;20048;-67
2022/12/11 01:15:42;;;;;;;10.38;5.15;;;;;;;0.73;67.33;100684.59;5052424;28;20420;-67
2022/12/11 01:18:09;;;;;;;10.35;4.95;;;;;;;0.69;67.70;100683.78;5051972;28;20048;-67
2022/12/11 01:20:37;;;;;;;10.52;5.60;;;;;;;0.44;67.54;100672.88;5051655;28;20045;-68
2022/12/11 01:23:04;;;;;;;10.88;5.05;;;;;;;0.65;68.21;100684.69;5042728;28;20049;-68
2022/12/11 01:25:32;;;;;;;11.68;5.75;;;;;;;0.77;68.08;100687.13;5052511;28;20440;-68
2022/12/11 01:27:59;;;;;;;11.15;4.93;;;;;;;0.23;69.24;100678.28;5084942;27;20039;-67
2022/12/11 01:30:26;;;;;;;9.02;4.63;;;;;;;0.41;68.93;100677.22;5048589;27;20037;-67
2022/12/11 01:32:52;;;;;;;9.75;5.13;;;;;;;0.48;68.63;100674.56;5074383;28;20044;-67
2022/12/11 01:35:19;;;;;;;7.43;3.90;;;;;;;0.38;68.91;100677.25;5061088;28;20504;-68
2022/12/11 01:37:45;;;;;;;10.57;5.68;;;;;;;0.40;69.11;100675.53;5076635;28;20477;-68
2022/12/11 01:40:15;;;;;;;12.43;5.43;;;;;;;0.76;67.73;100669.91;5058600;28;20687;-67
2022/12/11 01:42:43;;;;;;;8.85;4.38;;;;;;;0.56;67.94;100677.03;5051106;28;20056;-67
2022/12/11 01:45:27;;;;;;;8.70;4.88;;;;;;;0.54;67.95;100681.38;5041959;28;20385;-67
2022/12/11 01:47:59;;;;;;;9.30;4.70;;;;;;;0.61;66.63;100685.59;5050881;28;20515;-67
2022/12/11 01:50:26;;;;;;;9.38;4.72;;;;;;;0.75;66.34;100691.44;5041141;28;20047;-67
2022/12/11 01:52:52;;;;;;;9.98;4.82;;;;;;;0.95;66.15;100686.03;5054229;28;20048;-68
2022/12/11 01:55:20;;;;;;;9.20;4.68;;;;;;;0.86;65.84;100680.97;5063153;28;20500;-68
2022/12/11 01:57:50;;;;;;;10.57;5.25;;;;;;;0.34;67.68;100681.59;5076446;27;20410;-67
2022/12/11 02:00:19;;;;;;;10.93;5.32;;;;;;;0.23;68.40;100687.72;5054629;28;20045;-68
2022/12/11 02:02:45;;;;;;;7.75;4.38;;;;;;;0.37;67.59;100683.31;5051730;28;20049;-68
2022/12/11 02:05:12;;;;;;;9.60;4.93;;;;;;;0.70;66.01;100690.63;5060275;28;20098;-68
2022/12/11 02:07:41;;;;;;;9.40;4.72;;;;;;;0.85;65.97;100690.44;5064185;28;20438;-68
2022/12/11 02:10:10;;;;;;;9.60;5.18;;;;;;;0.99;65.74;100700.59;5050832;28;20532;-68
2022/12/11 02:12:41;;;;;;;10.15;4.90;;;;;;;0.88;65.21;100685.25;5041721;28;20060;-68
2022/12/11 02:15:13;;;;;;;9.77;4.63;;;;;;;1.09;63.91;100688.41;5060756;27;20052;-68
2022/12/11 02:17:44;;;;;;;9.38;4.78;;;;;;;1.15;64.44;100686.56;5067857;27;20052;-68
2022/12/11 02:20:15;;;;;;;9.32;4.90;;;;;;;0.93;65.13;100690.34;5055312;28;20412;-67
2022/12/11 02:23:06;;;;;;;13.27;5.55;;;;;;;1.05;64.38;100690.19;5050684;28;20044;-67
2022/12/11 02:25:40;;;;;;;10.23;5.30;;;;;;;1.05;64.84;100690.19;5050916;27;20095;-67
2022/12/11 02:28:18;;;;;;;9.73;4.60;;;;;;;0.98;65.02;100686.81;5057754;28;20048;-67
2022/12/11 02:30:50;;;;;;;10.98;5.43;;;;;;;0.51;66.25;100686.56;5050488;28;20051;-67
2022/12/11 02:33:18;;;;;;;10.15;5.05;;;;;;;0.39;67.68;100679.84;5051110;28;20400;-67
2022/12/11 02:35:46;;;;;;;10.10;4.95;;;;;;;-0.14;70.39;100677.78;5041801;28;20048;-67
2022/12/11 02:38:17;;;;;;;7.55;4.10;;;;;;;0.11;70.18;100677.56;5051169;28;20053;-68
2022/12/11 02:40:47;;;;;;;11.90;5.30;;;;;;;0.21;69.67;100684.34;5050737;28;20047;-68
2022/12/11 02:43:17;;;;;;;8.95;4.55;;;;;;;-0.38;70.90;100682.31;5050071;28;20044;-68
2022/12/11 02:45:46;;;;;;;8.77;4.03;;;;;;;0.00;69.99;100683.66;5051229;28;20041;-68
2022/12/11 02:48:16;;;;;;;9.13;4.43;;;;;;;0.21;69.20;100674.00;5040686;28;20056;-68
2022/12/11 02:50:47;;;;;;;8.52;4.38;;;;;;;0.22;68.16;100681.72;5049396;28;20045;-68
2022/12/11 02:53:18;;;;;;;11.07;4.53;;;;;;;0.00;69.10;100673.34;5081409;28;20051;-68
2022/12/11 02:55:47;;;;;;;7.63;4.15;;;;;;;0.01;69.49;100679.38;5040928;28;20045;-68
2022/12/11 02:58:21;;;;;;;8.30;3.70;;;;;;;0.02;69.27;100669.91;5057509;28;20590;-68
2022/12/11 03:00:47;;;;;;;11.27;4.47;;;;;;;0.24;68.11;100671.41;5071341;28;20043;-68
2022/12/11 03:03:15;;;;;;;10.23;4.80;;;;;;;0.56;66.79;100671.88;5050039;28;20564;-68
2022/12/11 03:05:42;;;;;;;12.63;4.65;;;;;;;0.66;65.92;100672.63;5050247;27;20468;-68
2022/12/11 03:08:10;;;;;;;8.70;3.70;;;;;;;0.76;65.56;100674.22;5040508;28;20049;-68
2022/12/11 03:10:36;;;;;;;10.18;5.05;;;;;;;0.91;65.56;100672.31;5044570;28;20648;-68
2022/12/11 03:13:04;;;;;;;11.90;5.07;;;;;;;0.86;65.68;100675.81;5049550;28;20508;-68
2022/12/11 03:15:42;;;;;;;10.20;4.60;;;;;;;0.36;67.32;100668.69;5039801;28;20048;-68
2022/12/11 03:18:15;;;;;;;11.75;4.70;;;;;;;0.32;67.75;100672.19;5049494;28;20054;-68
2022/12/11 03:20:46;;;;;;;9.80;4.75;;;;;;;0.69;67.19;100673.44;5039693;28;20045;-68
2022/12/11 03:23:20;;;;;;;10.77;5.38;;;;;;;0.52;67.29;100667.63;5050242;28;20439;-68
2022/12/11 03:25:53;;;;;;;9.32;4.90;;;;;;;0.10;67.98;100668.97;5049989;28;20051;-68
2022/12/11 03:28:26;;;;;;;9.93;5.07;;;;;;;0.02;68.87;100667.34;5057206;27;20055;-68
2022/12/11 03:30:56;;;;;;;10.27;5.32;;;;;;;0.02;69.39;100673.34;5064286;28;20048;-68
2022/12/11 03:33:27;;;;;;;10.45;4.82;;;;;;;-0.01;68.64;100670.81;5061110;28;20051;-68
2022/12/11 03:35:56;;;;;;;10.43;4.65;;;;;;;0.31;68.40;100660.16;5070255;28;20048;-68
2022/12/11 03:38:27;;;;;;;11.70;5.20;;;;;;;0.22;68.88;100661.09;5084837;27;20042;-68
2022/12/11 03:40:57;;;;;;;11.43;5.15;;;;;;;0.55;68.21;100656.44;5067674;27;20044;-68
2022/12/11 03:43:26;;;;;;;9.93;4.88;;;;;;;0.70;67.16;100659.66;5048948;27;20064;-68
2022/12/11 03:45:55;;;;;;;10.43;5.07;;;;;;;0.64;67.72;100664.91;5044703;28;20048;-68
2022/12/11 03:48:25;;;;;;;12.68;5.00;;;;;;;0.75;67.61;100657.88;5048766;28;20488;-68
2022/12/11 03:50:52;;;;;;;11.43;5.30;;;;;;;0.71;67.66;100650.19;5061354;28;20067;-69
2022/12/11 03:53:20;;;;;;;10.98;4.93;;;;;;;0.80;67.43;100650.94;5040161;27;20047;-68
2022/12/11 03:55:49;;;;;;;12.45;5.22;;;;;;;0.57;67.83;100649.50;5050001;28;20507;-68
2022/12/11 03:58:15;;;;;;;11.38;4.93;;;;;;;0.37;68.12;100649.78;5048081;28;20048;-68
2022/12/11 04:00:42;;;;;;;9.55;5.03;;;;;;;0.27;67.93;100653.31;5059417;28;20044;-68
2022/12/11 04:03:12;;;;;;;10.88;5.05;;;;;;;0.29;67.94;100660.19;5073717;27;20050;-68
2022/12/11 04:05:39;;;;;;;11.63;4.88;;;;;;;0.26;68.23;100654.22;5072469;28;20041;-68
2022/12/11 04:08:05;;;;;;;8.48;4.28;;;;;;;0.40;68.37;100660.06;5077999;27;20043;-68
2022/12/11 04:10:32;;;;;;;10.82;5.10;;;;;;;0.68;67.81;100657.97;5059082;28;20060;-68
2022/12/11 04:12:58;;;;;;;10.95;5.38;;;;;;;0.83;67.62;100656.06;5049834;28;20040;-68
2022/12/11 04:15:24;;;;;;;10.30;4.97;;;;;;;0.93;67.36;100662.78;5057775;28;20043;-68
2022/12/11 04:26:04;;;;;;;10.18;4.55;;;;;;;0.86;67.24;100660.31;5058818;28;20098;-68
2022/12/11 04:28:31;;;;;;;9.85;5.22;;;;;;;1.09;66.77;100662.56;5083588;27;20663;-68
2022/12/11 04:30:57;;;;;;;10.65;4.85;;;;;;;0.89;67.45;100655.09;5048964;28;20047;-68
2022/12/11 04:33:24;;;;;;;9.90;5.00;;;;;;;0.79;68.30;100659.53;5038580;28;20055;-69
2022/12/11 04:35:52;;;;;;;9.18;4.82;;;;;;;0.47;68.42;100641.91;5049136;28;20040;-68
2022/12/11 04:38:18;;;;;;;9.77;4.95;;;;;;;0.44;67.87;100639.34;5049859;28;20489;-68
2022/12/11 04:40:45;;;;;;;9.73;5.05;;;;;;;0.66;66.67;100627.06;5038978;28;20048;-68
2022/12/11 04:43:11;;;;;;;10.35;4.55;;;;;;;0.92;66.21;100624.94;5049434;28;20048;-68
2022/12/11 04:45:38;;;;;;;10.32;5.47;;;;;;;0.68;65.94;100627.88;5049510;28;20048;-68
2022/12/11 04:48:04;;;;;;;10.02;4.80;;;;;;;0.84;65.12;100629.38;5057653;27;20055;-68
2022/12/11 04:50:31;;;;;;;12.93;5.13;;;;;;;0.52;66.21;100631.50;5059113;28;20055;-71
2022/12/11 04:52:59;;;;;;;8.30;4.57;;;;;;;0.08;68.18;100620.84;5048674;28;20056;-68
2022/12/11 04:55:25;;;;;;;8.90;4.32;;;;;;;0.13;67.92;100619.09;5038628;28;20044;-68
2022/12/11 04:57:52;;;;;;;8.57;4.68;;;;;;;0.07;67.75;100620.03;5052466;28;20071;-68
2022/12/11 05:00:18;;;;;;;9.63;4.97;;;;;;;0.16;67.37;100625.06;5053165;28;20060;-68
2022/12/11 05:02:45;;;;;;;16.98;5.38;;;;;;;0.25;67.70;100624.97;5039367;27;20041;-68
2022/12/11 05:05:11;;;;;;;13.25;4.85;;;;;;;0.41;66.30;100618.75;5049256;27;20055;-68
2022/12/11 05:07:38;;;;;;;12.60;5.72;;;;;;;0.08;67.52;100613.13;5049420;27;20044;-68
2022/12/11 05:10:08;;;;;;;12.63;5.18;;;;;;;0.06;67.45;100627.78;5039296;27;20045;-68
2022/12/11 05:12:34;;;;;;;14.38;5.20;;;;;;;0.04;67.45;100626.94;5047683;27;20040;-68
2022/12/11 05:15:01;;;;;;;8.40;4.43;;;;;;;-0.17;68.25;100625.44;5063789;28;20043;-68
2022/12/11 05:17:27;;;;;;;7.78;4.00;;;;;;;-0.10;67.85;100619.34;5058781;27;20479;-68
2022/12/11 05:19:54;;;;;;;11.70;4.47;;;;;;;0.11;66.87;100616.53;5076359;27;20094;-68
2022/12/11 05:22:20;;;;;;;10.88;4.80;;;;;;;-0.18;67.80;100621.13;5048523;28;20049;-68
2022/12/11 05:24:47;;;;;;;11.38;5.70;;;;;;;-0.36;68.04;100617.03;5038660;28;20052;-68
2022/12/11 05:27:14;;;;;;;12.05;6.18;;;;;;;-0.39;68.00;100614.47;5056493;28;20423;-68
2022/12/11 05:29:41;;;;;;;7.65;4.38;;;;;;;-0.04;67.54;100609.81;5079536;28;20068;-67
2022/12/11 05:32:08;;;;;;;9.60;4.85;;;;;;;0.04;66.94;100608.91;5039751;27;20515;-67
2022/12/11 05:34:34;;;;;;;10.10;4.45;;;;;;;-0.13;67.24;100598.75;5049816;27;20535;-67
2022/12/11 05:37:01;;;;;;;10.55;5.30;;;;;;;0.04;66.70;100598.59;5052750;27;20464;-67
2022/12/11 05:39:28;;;;;;;10.40;5.20;;;;;;;0.24;66.17;100601.78;5042865;27;20055;-67
2022/12/11 05:41:54;;;;;;;10.55;5.22;;;;;;;0.34;65.86;100598.22;5052300;27;20045;-67
2022/12/11 05:44:22;;;;;;;10.80;5.18;;;;;;;0.53;64.89;100583.34;5052068;28;20048;-67
2022/12/11 05:46:49;;;;;;;10.57;4.43;;;;;;;0.40;64.46;100586.13;5074785;27;20086;-67
2022/12/11 05:49:15;;;;;;;10.00;4.72;;;;;;;0.08;65.57;100589.94;5052052;27;20044;-67
2022/12/11 05:51:42;;;;;;;8.93;4.57;;;;;;;0.28;64.70;100598.28;5052222;27;20052;-67
2022/12/11 05:54:09;;;;;;;11.32;5.57;;;;;;;0.36;64.95;100597.34;5042491;27;20048;-67
2022/12/11 05:56:36;;;;;;;8.68;4.07;;;;;;;0.12;65.16;100596.75;5051714;28;20049;-67
2022/12/11 05:59:05;;;;;;;11.05;4.63;;;;;;;0.08;66.07;100610.53;5060215;27;20551;-67
2022/12/11 06:01:34;;;;;;;10.45;4.63;;;;;;;-0.25;66.75;100602.31;5042238;27;20048;-68
2022/12/11 06:04:02;;;;;;;9.18;4.60;;;;;;;0.03;66.29;100599.47;5077146;28;20411;-68
2022/12/11 06:06:28;;;;;;;9.27;5.00;;;;;;;0.06;66.12;100600.28;5089090;28;20043;-68
2022/12/11 06:08:56;;;;;;;10.65;5.10;;;;;;;-0.03;66.55;100603.78;5042163;28;20044;-68
2022/12/11 06:11:25;;;;;;;10.90;4.85;;;;;;;0.13;66.11;100608.78;5061009;28;20047;-68
2022/12/11 06:13:52;;;;;;;9.48;5.13;;;;;;;0.18;66.68;100609.59;5066481;27;20051;-68
2022/12/11 06:16:19;;;;;;;12.60;5.70;;;;;;;0.34;66.18;100611.09;5062740;27;20500;-68
2022/12/11 06:18:47;;;;;;;13.60;4.95;;;;;;;0.46;65.38;100608.38;5087922;27;20051;-68
2022/12/11 06:21:15;;;;;;;10.00;4.88;;;;;;;0.66;64.80;100610.72;5088767;27;20048;-68
2022/12/11 06:23:42;;;;;;;10.15;4.75;;;;;;;0.51;65.60;100622.09;5041973;27;20048;-68
2022/12/11 06:26:09;;;;;;;8.65;4.72;;;;;;;0.58;64.98;100608.22;5051217;28;20044;-68
2022/12/11 06:28:36;;;;;;;8.68;5.05;;;;;;;0.69;64.45;100615.81;5057218;28;20053;-68
2022/12/11 06:31:03;;;;;;;11.32;5.03;;;;;;;0.77;64.04;100616.56;5074602;28;20579;-68
2022/12/11 06:33:30;;;;;;;10.38;5.20;;;;;;;0.43;65.29;100613.59;5055338;28;20048;-68
2022/12/11 06:36:01;;;;;;;12.45;5.55;;;;;;;0.40;65.33;100608.47;5050917;28;20051;-68
2022/12/11 06:38:28;;;;;;;10.93;5.35;;;;;;;0.48;65.19;100612.63;5051788;28;20068;-68
2022/12/11 06:40:55;;;;;;;11.57;4.93;;;;;;;0.50;65.68;100607.47;5062455;28;20059;-68
2022/12/11 06:43:22;;;;;;;12.02;5.32;;;;;;;0.14;66.11;100602.78;5061599;27;20059;-68
2022/12/11 06:45:48;;;;;;;10.82;5.00;;;;;;;-0.11;67.45;100605.59;5065116;27;20055;-68
2022/12/11 06:48:15;;;;;;;10.88;4.97;;;;;;;0.15;67.08;100607.06;5050161;28;20049;-68
2022/12/11 06:50:41;;;;;;;9.82;5.63;;;;;;;0.48;66.44;100604.06;5050140;28;20049;-68
2022/12/11 06:53:10;;;;;;;12.02;5.13;;;;;;;0.35;66.43;100607.66;5046772;28;20063;-68
2022/12/11 06:55:36;;;;;;;14.45;6.05;;;;;;;0.25;67.03;100611.22;5050423;28;20047;-68
2022/12/11 06:58:04;;;;;;;11.10;6.50;;;;;;;0.29;66.85;100607.75;5054944;28;20048;-68
2022/12/11 07:00:31;;;;;;;13.82;6.57;;;;;;;-0.09;67.83;100606.44;5053098;28;20059;-68
2022/12/11 07:02:57;;;;;;;13.13;6.60;;;;;;;-0.55;69.21;100612.91;5060941;28;20047;-68
2022/12/11 07:05:24;;;;;;;11.70;5.32;;;;;;;-0.30;69.35;100610.97;5070893;27;20125;-68
2022/12/11 07:07:52;;;;;;;13.00;5.50;;;;;;;-0.20;69.51;100615.16;5047224;27;20056;-68
2022/12/11 07:10:20;;;;;;;11.30;5.10;;;;;;;-0.03;68.98;100608.94;5050284;27;20423;-68
2022/12/11 07:12:47;;;;;;;11.00;4.78;;;;;;;-0.23;69.39;100610.03;5041104;27;20056;-68
2022/12/11 07:15:13;;;;;;;10.38;5.45;;;;;;;-0.16;68.98;100612.53;5056310;28;20055;-68
2022/12/11 07:17:40;;;;;;;12.68;5.63;;;;;;;-0.01;68.83;100608.94;5075639;28;20045;-68
2022/12/11 07:20:08;;;;;;;13.30;6.35;;;;;;;0.15;68.36;100620.78;5065153;28;20434;-68
2022/12/11 07:22:34;;;;;;;12.32;5.65;;;;;;;-0.16;68.89;100630.59;5065512;27;20716;-68
2022/12/11 07:25:00;;;;;;;14.02;6.75;;;;;;;0.06;68.45;100627.78;5062475;27;20431;-67
2022/12/11 07:27:29;;;;;;;13.35;5.97;;;;;;;0.00;69.21;100637.25;5052613;28;20411;-67
2022/12/11 07:29:56;;;;;;;16.35;6.20;;;;;;;-0.06;68.91;100633.91;5056726;28;20051;-67
2022/12/11 07:32:22;;;;;;;13.52;6.35;;;;;;;-0.46;70.30;100638.59;5061470;28;20060;-67
2022/12/11 07:34:50;;;;;;;14.90;6.05;;;;;;;-0.28;70.26;100640.13;5039471;28;20067;-67
2022/12/11 07:37:16;;;;;;;14.13;5.95;;;;;;;-0.37;70.00;100638.50;5070437;28;20115;-67
2022/12/11 07:39:43;;;;;;;14.77;5.50;;;;;;;-0.27;69.77;100640.13;5057774;28;20052;-67
2022/12/11 07:42:09;;;;;;;14.35;5.13;;;;;;;-0.14;69.21;100641.72;5047985;27;20056;-67
2022/12/11 07:44:37;;;;;;;17.08;6.18;;;;;;;0.02;68.93;100651.88;5047193;28;20065;-67
2022/12/11 07:47:04;;;;;;;13.63;6.35;;;;;;;0.13;68.80;100644.88;5048345;28;20044;-67
2022/12/11 07:49:30;;;;;;;17.13;6.50;;;;;;;0.01;68.73;100651.00;5027682;28;20049;-67
2022/12/11 07:51:57;;;;;;;14.20;6.35;;;;;;;-0.13;69.20;100645.16;5040090;27;20059;-67
2022/12/11 07:54:23;;;;;;;17.38;6.75;;;;;;;-0.24;70.17;100650.41;5047790;28;20047;-67
2022/12/11 07:56:50;;;;;;;14.68;5.45;;;;;;;-0.06;70.23;100646.78;5052415;27;20043;-67
2022/12/11 07:59:16;;;;;;;13.48;6.05;;;;;;;0.10;69.40;100647.50;5054488;27;20479;-67
2022/12/11 08:01:44;;;;;;;14.13;5.70;;;;;;;-0.01;69.52;100647.59;5094458;27;20054;-68
2022/12/11 08:04:14;;;;;;;10.43;5.25;;;;;;;0.30;68.76;100650.69;5061745;27;20447;-67
2022/12/11 08:06:41;;;;;;;11.95;5.53;;;;;;;0.05;69.47;100646.69;5048843;28;20127;-67
2022/12/11 08:09:09;;;;;;;14.57;6.50;;;;;;;0.25;69.04;100637.00;5047577;28;20555;-67
2022/12/11 08:11:37;;;;;;;13.57;6.50;;;;;;;0.32;68.61;100641.22;5037909;28;20545;-67
2022/12/11 08:14:04;;;;;;;11.65;5.68;;;;;;;0.13;69.40;100637.16;5048147;28;20040;-68
2022/12/11 08:16:32;;;;;;;15.68;6.50;;;;;;;0.21;69.23;100632.75;5061156;28;20275;-67
2022/12/11 08:19:00;;;;;;;14.35;6.15;;;;;;;0.18;69.16;100635.38;5039133;28;20586;-67
2022/12/11 08:21:28;;;;;;;13.85;6.35;;;;;;;0.49;68.38;100635.00;5050784;27;20048;-67
2022/12/11 08:23:55;;;;;;;14.38;6.65;;;;;;;0.10;68.76;100626.88;5056390;27;20699;-67
2022/12/11 08:26:23;;;;;;;17.70;6.80;;;;;;;0.15;69.24;100632.84;5037934;28;20512;-68
2022/12/11 08:28:50;;;;;;;15.00;6.65;;;;;;;0.25;68.95;100637.88;5048057;28;20492;-67
2022/12/11 08:31:18;;;;;;;13.65;5.70;;;;;;;0.01;68.78;100640.69;5056048;27;20518;-67
2022/12/11 08:33:45;;;;;;;14.95;6.10;;;;;;;0.22;69.08;100640.47;5038725;28;20048;-68
2022/12/11 08:36:15;;;;;;;11.45;5.65;;;;;;;0.36;68.96;100653.22;5048156;28;20051;-67
2022/12/11 08:38:42;;;;;;;15.13;6.22;;;;;;;0.44;68.41;100647.06;5062137;28;20051;-67
2022/12/11 08:41:09;;;;;;;10.63;4.70;;;;;;;0.53;68.06;100647.84;5084134;27;20043;-67
2022/12/11 08:43:36;;;;;;;11.27;5.25;;;;;;;0.60;67.70;100647.75;5046979;28;20048;-67
2022/12/11 08:46:02;;;;;;;14.48;5.50;;;;;;;0.70;67.05;100654.50;5042834;28;20052;-67
2022/12/11 08:48:29;;;;;;;10.20;4.90;;;;;;;0.72;69.92;100652.75;5036291;28;20055;-67
2022/12/11 08:50:58;;;;;;;15.25;5.95;;;;;;;1.11;74.27;100655.69;5048367;28;20455;-67
2022/12/11 08:53:26;;;;;;;29.50;9.45;;;;;;;1.25;69.34;100659.78;5049157;28;20041;-67
2022/12/11 08:55:52;;;;;;;28.02;11.35;;;;;;;1.28;66.96;100670.03;5038888;28;20037;-67
2022/12/11 08:58:19;;;;;;;19.40;8.80;;;;;;;1.21;66.53;100672.75;5071381;27;20039;-67
2022/12/11 09:00:45;;;;;;;21.92;7.53;;;;;;;1.13;65.69;100674.56;5078517;28;20055;-67
2022/12/11 09:03:12;;;;;;;15.38;7.10;;;;;;;1.10;65.29;100674.63;5056975;28;20047;-67
2022/12/11 09:05:38;;;;;;;18.38;7.47;;;;;;;1.15;66.20;100677.97;5060740;27;20408;-67
2022/12/11 09:08:05;;;;;;;16.48;6.80;;;;;;;1.00;66.42;100683.38;5049045;28;20127;-67
2022/12/11 09:10:33;;;;;;;15.40;6.88;;;;;;;0.85;65.99;100668.94;5041267;28;20385;-67
2022/12/11 09:12:59;;;;;;;14.88;7.07;;;;;;;0.82;66.24;100669.81;5058417;27;20043;-67
2022/12/11 09:15:26;;;;;;;17.15;6.80;;;;;;;0.84;66.24;100668.09;5073908;27;20048;-67
2022/12/11 09:17:52;;;;;;;14.65;6.50;;;;;;;0.76;66.94;100666.47;5061255;27;20040;-67
2022/12/11 09:20:18;;;;;;;14.93;6.05;;;;;;;0.81;67.07;100664.69;5065943;27;20498;-67
2022/12/11 09:22:45;;;;;;;14.95;6.10;;;;;;;1.05;66.48;100660.91;5065536;27;20039;-67
2022/12/11 09:25:11;;;;;;;15.52;6.38;;;;;;;0.83;67.23;100665.53;5061726;27;20055;-67
2022/12/11 09:27:39;;;;;;;14.73;5.50;;;;;;;1.02;67.08;100661.81;5060820;27;20048;-67
2022/12/11 09:30:07;;;;;;;16.60;6.47;;;;;;;0.89;66.66;100658.53;5057272;27;20044;-67
2022/12/11 09:32:34;;;;;;;14.93;5.95;;;;;;;1.14;76.70;100664.25;5042668;27;20053;-67
2022/12/11 09:35:00;;;;;;;13.23;5.70;;;;;;;1.42;76.79;100657.75;5052603;27;20052;-67
2022/12/11 09:37:27;;;;;;;11.52;5.43;;;;;;;1.50;67.57;100661.94;5052276;27;20056;-67
2022/12/11 09:39:53;;;;;;;14.73;5.78;;;;;;;1.63;65.46;100651.38;5042617;27;20068;-67
2022/12/11 09:42:27;;;;;;;12.10;6.03;;;;;;;1.67;64.06;100644.44;5051907;27;20047;-67
2022/12/11 09:44:59;;;;;;;11.93;5.32;;;;;;;1.34;63.77;100648.41;5065679;27;20043;-67
2022/12/11 09:47:31;;;;;;;13.23;4.88;;;;;;;1.21;64.73;100646.91;5058172;27;20048;-67
2022/12/11 09:50:06;;;;;;;11.05;5.10;;;;;;;1.12;64.98;100652.19;5079486;27;20047;-66
2022/12/11 09:52:37;;;;;;;12.55;5.75;;;;;;;1.22;65.31;100646.03;5043771;27;20484;-66
2022/12/11 09:55:14;;;;;;;12.50;6.20;;;;;;;1.31;64.75;100638.13;5052049;27;20049;-67
2022/12/11 09:57:50;;;;;;;16.38;7.40;;;;;;;1.33;64.67;100637.22;5050036;27;20048;-67
2022/12/11 10:00:25;;;;;;;14.75;6.13;;;;;;;1.40;65.18;100638.84;5091383;27;20140;-67
2022/12/11 10:03:09;;;;;;;15.98;5.63;;;;;;;1.28;64.48;100648.53;5108107;27;20062;-67
2022/12/11 10:05:43;;;;;;;18.58;5.70;;;;;;;1.35;64.71;100637.22;5071522;28;20530;-66
2022/12/11 10:08:19;;;;;;;11.95;5.57;;;;;;;1.40;64.80;100627.69;5065967;28;20055;-66
2022/12/11 10:10:54;;;;;;;12.82;5.53;;;;;;;1.55;64.82;100636.91;5056533;28;20487;-66
2022/12/11 10:13:30;;;;;;;14.20;5.80;;;;;;;1.37;63.80;100635.44;5051379;28;20175;-66
2022/12/11 10:16:03;;;;;;;16.15;6.07;;;;;;;1.38;64.55;100632.84;5050420;28;20051;-67
2022/12/11 10:18:32;;;;;;;10.02;5.18;;;;;;;1.52;64.97;100632.63;5057843;28;20242;-67
2022/12/11 10:21:02;;;;;;;12.23;6.30;;;;;;;1.40;63.69;100636.25;5054567;28;20054;-66
2022/12/11 10:23:35;;;;;;;13.40;4.88;;;;;;;1.39;64.64;100623.38;5080835;28;20122;-66
2022/12/11 10:26:06;;;;;;;13.18;5.80;;;;;;;1.08;64.79;100628.16;5023700;28;20056;-66
2022/12/11 10:28:34;;;;;;;15.63;6.63;;;;;;;1.22;65.19;100623.63;5064014;27;20487;-66
2022/12/11 10:31:10;;;;;;;11.07;5.13;;;;;;;1.21;65.74;100621.09;5055639;27;20048;-66
2022/12/11 10:33:45;;;;;;;13.93;5.25;;;;;;;0.80;66.50;100612.22;5060802;27;20097;-66
2022/12/11 10:36:16;;;;;;;14.05;5.85;;;;;;;0.95;67.01;100613.72;5063467;27;20102;-66
2022/12/11 10:38:45;;;;;;;15.87;5.77;;;;;;;0.90;66.75;100605.19;5040415;27;20056;-66
2022/12/11 10:41:17;;;;;;;11.27;5.22;;;;;;;0.95;66.66;100591.34;5049357;28;20078;-67
2022/12/11 10:43:45;;;;;;;15.43;5.90;;;;;;;1.05;66.62;100598.94;5049604;28;20071;-67
2022/12/11 10:46:17;;;;;;;14.23;5.75;;;;;;;1.16;65.96;100586.72;5040628;27;20170;-67
2022/12/11 10:48:47;;;;;;;13.93;5.70;;;;;;;1.20;65.83;100588.38;5062670;28;20054;-67
2022/12/11 10:51:15;;;;;;;14.05;5.85;;;;;;;1.12;65.80;100591.09;5056872;28;20048;-67
2022/12/11 10:53:43;;;;;;;18.60;6.47;;;;;;;1.33;65.55;100588.16;5064539;27;20060;-67
2022/12/11 10:56:14;;;;;;;19.00;6.03;;;;;;;1.36;64.93;100593.28;5068227;27;20136;-67
2022/12/11 10:58:49;;;;;;;13.70;5.80;;;;;;;1.52;64.69;100604.19;5050451;28;20055;-67
2022/12/11 11:01:20;;;;;;;20.35;6.53;;;;;;;1.17;65.58;100594.47;5086200;27;20047;-67
2022/12/11 11:03:57;;;;;;;17.42;6.63;;;;;;;0.81;66.88;100592.44;5085251;27;20138;-67
2022/12/11 11:06:25;;;;;;;18.98;7.20;;;;;;;1.10;66.27;100589.41;5049632;28;20040;-67
2022/12/11 11:08:53;;;;;;;16.27;7.28;;;;;;;1.08;66.82;100591.16;5049315;28;20044;-67
2022/12/11 11:11:25;;;;;;;11.57;5.65;;;;;;;1.04;66.20;100590.34;5040380;28;20399;-67
2022/12/11 11:14:04;;;;;;;14.13;5.60;;;;;;;1.13;65.81;100587.63;5058242;28;20426;-67
2022/12/11 11:16:34;;;;;;;15.40;5.88;;;;;;;1.27;65.73;100587.41;5058136;28;20101;-67
2022/12/11 11:19:01;;;;;;;16.05;6.53;;;;;;;0.50;66.69;100581.69;5072812;28;20094;-67
2022/12/11 11:21:29;;;;;;;14.95;6.78;;;;;;;0.13;68.93;100575.28;5086329;28;20090;-67
2022/12/11 11:23:55;;;;;;;15.60;6.70;;;;;;;0.63;68.93;100580.63;5040141;28;20049;-67
2022/12/11 11:26:22;;;;;;;14.20;6.10;;;;;;;1.11;67.92;100585.97;5048648;27;20147;-68
2022/12/11 11:28:52;;;;;;;14.82;5.30;;;;;;;1.18;66.97;100577.25;5050168;28;20496;-67
2022/12/11 11:31:20;;;;;;;15.00;6.30;;;;;;;0.96;66.88;100580.13;5059925;28;20051;-67
2022/12/11 11:33:55;;;;;;;13.50;5.90;;;;;;;1.07;66.66;100581.72;5043181;27;20055;-67
2022/12/11 11:36:24;;;;;;;18.40;6.90;;;;;;;0.91;67.03;100571.63;5086251;27;20441;-67
2022/12/11 11:39:04;;;;;;;16.95;7.38;;;;;;;0.80;67.32;100565.78;5059308;27;20044;-67
2022/12/11 11:41:37;;;;;;;20.38;8.15;;;;;;;1.15;67.23;100564.34;5050093;27;20047;-67